sensor_id;sensor_type;location;lat;lon;timestamp;P1;durP1;ratioP1;P2;durP2;ratioP2
10845;SDS011;5476;51.540;7.186;2022-12-07T00:02:09;23.43;;;15.07;;
10845;SDS011;5476;51.540;7.186;2022-12-07T00:04:36;20.67;;;15.37;;
10845;SDS011;5476;51.540;7.186;2022-12-07T00:07:03;23.03;;;15.20;;
10845;SDS011;5476;51.540;7.186;2022-12-07T00:09:31;20.30;;;15.13;;
10845;SDS011;5476;51.540;7.186;2022-12-07T00:11:59;21.93;;;16.17;;
10845;SDS011;5476;51.540;7.186;2022-12-07T00:14:27;22.07;;;15.57;;
10845;SDS011;5476;51.540;7.186;2022-12-07T00:16:55;23.90;;;15.30;;
10845;SDS011;5476;51.540;7.186;2022-12-07T00:19:22;22.17;;;15.37;;
10845;SDS011;5476;51.540;7.186;2022-12-07T00:21:49;20.80;;;14.73;;
10845;SDS011;5476;51.540;7.186;2022-12-07T00:24:16;18.80;;;14.67;;
10845;SDS011;5476;51.540;7.186;2022-12-07T00:26:43;22.20;;;14.77;;
10845;SDS011;5476;51.540;7.186;2022-12-07T00:29:13;23.57;;;14.83;;
10845;SDS011;5476;51.540;7.186;2022-12-07T00:31:41;20.47;;;14.53;;
10845;SDS011;5476;51.540;7.186;2022-12-07T00:34:11;21.47;;;14.30;;
10845;SDS011;5476;51.540;7.186;2022-12-07T00:36:39;20.57;;;14.50;;
10845;SDS011;5476;51.540;7.186;2022-12-07T00:39:06;21.37;;;14.83;;
10845;SDS011;5476;51.540;7.186;2022-12-07T00:41:33;20.67;;;14.70;;
10845;SDS011;5476;51.540;7.186;2022-12-07T00:44:01;19.87;;;14.57;;
10845;SDS011;5476;51.540;7.186;2022-12-07T00:46:29;20.80;;;14.70;;
10845;SDS011;5476;51.540;7.186;2022-12-07T00:48:57;21.87;;;15.50;;
10845;SDS011;5476;51.540;7.186;2022-12-07T00:51:24;20.53;;;14.90;;
10845;SDS011;5476;51.540;7.186;2022-12-07T00:53:52;23.10;;;14.93;;
10845;SDS011;5476;51.540;7.186;2022-12-07T00:56:21;21.83;;;15.80;;
10845;SDS011;5476;51.540;7.186;2022-12-07T00:58:52;21.63;;;15.53;;
10845;SDS011;5476;51.540;7.186;2022-12-07T01:01:19;21.70;;;15.97;;
10845;SDS011;5476;51.540;7.186;2022-12-07T01:03:47;22.00;;;16.90;;
10845;SDS011;5476;51.540;7.186;2022-12-07T01:06:15;24.03;;;16.83;;
10845;SDS011;5476;51.540;7.186;2022-12-07T01:08:42;25.90;;;17.90;;
10845;SDS011;5476;51.540;7.186;2022-12-07T01:11:12;24.67;;;16.83;;
10845;SDS011;5476;51.540;7.186;2022-12-07T01:13:39;24.57;;;17.00;;
10845;SDS011;5476;51.540;7.186;2022-12-07T01:16:07;25.07;;;17.63;;
10845;SDS011;5476;51.540;7.186;2022-12-07T01:18:35;24.33;;;17.57;;
10845;SDS011;5476;51.540;7.186;2022-12-07T01:21:04;26.73;;;19.10;;
10845;SDS011;5476;51.540;7.186;2022-12-07T01:23:32;26.80;;;19.70;;
10845;SDS011;5476;51.540;7.186;2022-12-07T01:26:00;26.10;;;18.20;;
10845;SDS011;5476;51.540;7.186;2022-12-07T01:28:28;26.50;;;19.27;;
10845;SDS011;5476;51.540;7.186;2022-12-07T01:30:56;27.57;;;19.53;;
10845;SDS011;5476;51.540;7.186;2022-12-07T01:33:23;30.23;;;20.63;;
10845;SDS011;5476;51.540;7.186;2022-12-07T01:35:50;27.33;;;20.03;;
10845;SDS011;5476;51.540;7.186;2022-12-07T01:38:19;30.40;;;19.53;;
10845;SDS011;5476;51.540;7.186;2022-12-07T01:40:53;28.73;;;19.73;;
10845;SDS011;5476;51.540;7.186;2022-12-07T01:43:20;27.33;;;19.03;;
10845;SDS011;5476;51.540;7.186;2022-12-07T01:45:48;28.13;;;19.83;;
10845;SDS011;5476;51.540;7.186;2022-12-07T01:48:15;28.67;;;20.00;;
10845;SDS011;5476;51.540;7.186;2022-12-07T01:50:44;27.80;;;19.73;;
10845;SDS011;5476;51.540;7.186;2022-12-07T01:53:12;28.70;;;20.50;;
10845;SDS011;5476;51.540;7.186;2022-12-07T01:55:49;28.50;;;19.80;;
10845;SDS011;5476;51.540;7.186;2022-12-07T01:58:18;30.80;;;20.20;;
10845;SDS011;5476;51.540;7.186;2022-12-07T02:00:46;30.53;;;20.40;;
10845;SDS011;5476;51.540;7.186;2022-12-07T02:03:15;30.63;;;20.40;;
10845;SDS011;5476;51.540;7.186;2022-12-07T02:05:45;28.67;;;19.83;;
10845;SDS011;5476;51.540;7.186;2022-12-07T02:08:15;29.83;;;20.50;;
10845;SDS011;5476;51.540;7.186;2022-12-07T02:10:49;30.97;;;20.87;;
10845;SDS011;5476;51.540;7.186;2022-12-07T02:13:20;30.97;;;20.40;;
10845;SDS011;5476;51.540;7.186;2022-12-07T02:15:52;28.07;;;20.30;;
10845;SDS011;5476;51.540;7.186;2022-12-07T02:18:23;31.03;;;20.10;;
10845;SDS011;5476;51.540;7.186;2022-12-07T02:20:54;26.37;;;18.67;;
10845;SDS011;5476;51.540;7.186;2022-12-07T02:31:53;31.87;;;19.40;;
10845;SDS011;5476;51.540;7.186;2022-12-07T02:35:15;29.10;;;19.00;;
10845;SDS011;5476;51.540;7.186;2022-12-07T02:37:33;32.40;;;20.00;;
10845;SDS011;5476;51.540;7.186;2022-12-07T02:40:04;30.20;;;18.73;;
10845;SDS011;5476;51.540;7.186;2022-12-07T02:42:33;28.07;;;19.10;;
10845;SDS011;5476;51.540;7.186;2022-12-07T02:45:03;28.10;;;18.50;;
10845;SDS011;5476;51.540;7.186;2022-12-07T02:47:33;29.50;;;18.70;;
10845;SDS011;5476;51.540;7.186;2022-12-07T02:50:02;26.60;;;17.63;;
10845;SDS011;5476;51.540;7.186;2022-12-07T02:52:29;26.47;;;17.47;;
10845;SDS011;5476;51.540;7.186;2022-12-07T02:54:56;27.17;;;18.33;;
10845;SDS011;5476;51.540;7.186;2022-12-07T02:57:31;32.73;;;18.50;;
10845;SDS011;5476;51.540;7.186;2022-12-07T03:00:01;27.77;;;18.30;;
10845;SDS011;5476;51.540;7.186;2022-12-07T03:02:31;25.60;;;17.93;;
10845;SDS011;5476;51.540;7.186;2022-12-07T03:05:05;28.00;;;18.10;;
10845;SDS011;5476;51.540;7.186;2022-12-07T03:07:36;27.90;;;18.40;;
10845;SDS011;5476;51.540;7.186;2022-12-07T03:10:07;28.67;;;18.70;;
10845;SDS011;5476;51.540;7.186;2022-12-07T03:12:37;26.10;;;17.93;;
10845;SDS011;5476;51.540;7.186;2022-12-07T03:15:10;26.67;;;17.80;;
10845;SDS011;5476;51.540;7.186;2022-12-07T03:17:49;27.30;;;17.70;;
10845;SDS011;5476;51.540;7.186;2022-12-07T03:20:26;26.07;;;18.87;;
10845;SDS011;5476;51.540;7.186;2022-12-07T03:22:54;34.30;;;19.53;;
10845;SDS011;5476;51.540;7.186;2022-12-07T03:25:21;26.30;;;18.23;;
10845;SDS011;5476;51.540;7.186;2022-12-07T03:27:52;31.70;;;18.03;;
10845;SDS011;5476;51.540;7.186;2022-12-07T03:30:24;30.37;;;20.23;;
10845;SDS011;5476;51.540;7.186;2022-12-07T03:33:01;30.80;;;19.17;;
10845;SDS011;5476;51.540;7.186;2022-12-07T03:35:46;28.43;;;18.63;;
10845;SDS011;5476;51.540;7.186;2022-12-07T03:38:38;26.70;;;18.70;;
10845;SDS011;5476;51.540;7.186;2022-12-07T03:41:30;26.60;;;18.40;;
10845;SDS011;5476;51.540;7.186;2022-12-07T03:44:05;26.57;;;19.03;;
10845;SDS011;5476;51.540;7.186;2022-12-07T03:46:48;26.73;;;17.23;;
10845;SDS011;5476;51.540;7.186;2022-12-07T03:49:37;26.40;;;18.20;;
10845;SDS011;5476;51.540;7.186;2022-12-07T03:52:32;27.73;;;17.93;;
10845;SDS011;5476;51.540;7.186;2022-12-07T03:58:20;25.73;;;17.87;;
10845;SDS011;5476;51.540;7.186;2022-12-07T04:01:19;25.70;;;17.63;;
10845;SDS011;5476;51.540;7.186;2022-12-07T04:07:40;28.73;;;17.73;;
10845;SDS011;5476;51.540;7.186;2022-12-07T04:10:23;31.33;;;19.17;;
10845;SDS011;5476;51.540;7.186;2022-12-07T04:13:03;29.00;;;18.10;;
10845;SDS011;5476;51.540;7.186;2022-12-07T04:15:38;27.67;;;17.90;;
10845;SDS011;5476;51.540;7.186;2022-12-07T04:18:13;29.63;;;18.23;;
10845;SDS011;5476;51.540;7.186;2022-12-07T04:20:47;31.30;;;17.83;;
10845;SDS011;5476;51.540;7.186;2022-12-07T04:23:20;25.43;;;17.97;;
10845;SDS011;5476;51.540;7.186;2022-12-07T04:25:51;27.93;;;18.50;;
10845;SDS011;5476;51.540;7.186;2022-12-07T04:28:20;26.80;;;18.00;;
10845;SDS011;5476;51.540;7.186;2022-12-07T04:30:51;33.97;;;18.77;;
10845;SDS011;5476;51.540;7.186;2022-12-07T04:33:32;27.10;;;18.13;;
10845;SDS011;5476;51.540;7.186;2022-12-07T04:36:09;25.97;;;18.27;;
10845;SDS011;5476;51.540;7.186;2022-12-07T04:38:46;26.80;;;18.37;;
10845;SDS011;5476;51.540;7.186;2022-12-07T04:41:24;30.33;;;18.20;;
10845;SDS011;5476;51.540;7.186;2022-12-07T04:44:03;27.63;;;17.93;;
10845;SDS011;5476;51.540;7.186;2022-12-07T04:46:34;28.23;;;18.53;;
10845;SDS011;5476;51.540;7.186;2022-12-07T04:49:01;26.63;;;16.90;;
10845;SDS011;5476;51.540;7.186;2022-12-07T04:51:30;25.20;;;17.40;;
10845;SDS011;5476;51.540;7.186;2022-12-07T04:53:59;31.13;;;18.23;;
10845;SDS011;5476;51.540;7.186;2022-12-07T04:56:26;27.40;;;16.87;;
10845;SDS011;5476;51.540;7.186;2022-12-07T04:58:53;25.33;;;15.97;;
10845;SDS011;5476;51.540;7.186;2022-12-07T05:01:21;24.37;;;16.00;;
10845;SDS011;5476;51.540;7.186;2022-12-07T05:03:49;25.20;;;15.30;;
10845;SDS011;5476;51.540;7.186;2022-12-07T05:06:16;22.63;;;15.13;;
10845;SDS011;5476;51.540;7.186;2022-12-07T05:08:43;25.07;;;15.93;;
10845;SDS011;5476;51.540;7.186;2022-12-07T05:11:12;24.17;;;15.10;;
10845;SDS011;5476;51.540;7.186;2022-12-07T05:14:00;21.33;;;15.07;;
10845;SDS011;5476;51.540;7.186;2022-12-07T05:16:27;26.17;;;16.60;;
10845;SDS011;5476;51.540;7.186;2022-12-07T05:18:55;25.73;;;16.63;;
10845;SDS011;5476;51.540;7.186;2022-12-07T05:21:22;22.43;;;15.70;;
10845;SDS011;5476;51.540;7.186;2022-12-07T05:23:49;26.03;;;16.53;;
10845;SDS011;5476;51.540;7.186;2022-12-07T05:26:18;26.67;;;16.53;;
10845;SDS011;5476;51.540;7.186;2022-12-07T05:28:49;25.77;;;16.53;;
10845;SDS011;5476;51.540;7.186;2022-12-07T05:31:16;24.83;;;16.80;;
10845;SDS011;5476;51.540;7.186;2022-12-07T05:33:44;25.17;;;16.47;;
10845;SDS011;5476;51.540;7.186;2022-12-07T05:36:11;25.20;;;17.10;;
10845;SDS011;5476;51.540;7.186;2022-12-07T05:38:38;27.73;;;16.70;;
10845;SDS011;5476;51.540;7.186;2022-12-07T05:41:06;25.47;;;17.37;;
10845;SDS011;5476;51.540;7.186;2022-12-07T05:43:57;24.43;;;16.03;;
10845;SDS011;5476;51.540;7.186;2022-12-07T05:46:24;27.07;;;17.63;;
10845;SDS011;5476;51.540;7.186;2022-12-07T05:48:51;25.07;;;15.90;;
10845;SDS011;5476;51.540;7.186;2022-12-07T05:51:18;27.97;;;18.13;;
10845;SDS011;5476;51.540;7.186;2022-12-07T05:53:45;30.33;;;16.90;;
10845;SDS011;5476;51.540;7.186;2022-12-07T05:56:12;22.27;;;15.53;;
10845;SDS011;5476;51.540;7.186;2022-12-07T05:58:40;27.90;;;16.60;;
10845;SDS011;5476;51.540;7.186;2022-12-07T06:01:25;25.93;;;16.40;;
10845;SDS011;5476;51.540;7.186;2022-12-07T06:03:52;27.60;;;17.40;;
10845;SDS011;5476;51.540;7.186;2022-12-07T06:06:20;23.63;;;15.97;;
10845;SDS011;5476;51.540;7.186;2022-12-07T06:08:47;26.00;;;17.07;;
10845;SDS011;5476;51.540;7.186;2022-12-07T06:11:14;26.83;;;16.37;;
10845;SDS011;5476;51.540;7.186;2022-12-07T06:14:00;28.10;;;16.73;;
10845;SDS011;5476;51.540;7.186;2022-12-07T06:16:28;23.37;;;15.63;;
10845;SDS011;5476;51.540;7.186;2022-12-07T06:18:56;23.63;;;16.13;;
10845;SDS011;5476;51.540;7.186;2022-12-07T06:21:23;27.30;;;16.23;;
10845;SDS011;5476;51.540;7.186;2022-12-07T06:23:51;27.17;;;16.77;;
10845;SDS011;5476;51.540;7.186;2022-12-07T06:26:18;25.97;;;16.27;;
10845;SDS011;5476;51.540;7.186;2022-12-07T06:28:46;27.13;;;17.00;;
10845;SDS011;5476;51.540;7.186;2022-12-07T06:31:13;25.83;;;16.57;;
10845;SDS011;5476;51.540;7.186;2022-12-07T06:33:42;27.50;;;16.17;;
10845;SDS011;5476;51.540;7.186;2022-12-07T06:36:09;24.10;;;16.47;;
10845;SDS011;5476;51.540;7.186;2022-12-07T06:38:37;25.60;;;15.27;;
10845;SDS011;5476;51.540;7.186;2022-12-07T06:41:04;24.30;;;15.17;;
10845;SDS011;5476;51.540;7.186;2022-12-07T06:43:32;23.10;;;14.67;;
10845;SDS011;5476;51.540;7.186;2022-12-07T06:45:59;24.73;;;15.03;;
10845;SDS011;5476;51.540;7.186;2022-12-07T06:48:26;26.40;;;15.47;;
10845;SDS011;5476;51.540;7.186;2022-12-07T06:50:54;27.63;;;15.43;;
10845;SDS011;5476;51.540;7.186;2022-12-07T06:53:22;22.80;;;14.40;;
10845;SDS011;5476;51.540;7.186;2022-12-07T06:55:49;25.80;;;14.87;;
10845;SDS011;5476;51.540;7.186;2022-12-07T06:58:16;23.57;;;14.47;;
10845;SDS011;5476;51.540;7.186;2022-12-07T07:00:44;26.27;;;15.23;;
10845;SDS011;5476;51.540;7.186;2022-12-07T07:03:11;24.00;;;15.00;;
10845;SDS011;5476;51.540;7.186;2022-12-07T07:05:38;22.03;;;13.57;;
10845;SDS011;5476;51.540;7.186;2022-12-07T07:08:07;22.90;;;14.70;;
10845;SDS011;5476;51.540;7.186;2022-12-07T07:10:34;22.43;;;13.93;;
10845;SDS011;5476;51.540;7.186;2022-12-07T07:13:01;22.90;;;14.47;;
10845;SDS011;5476;51.540;7.186;2022-12-07T07:15:28;25.50;;;14.10;;
10845;SDS011;5476;51.540;7.186;2022-12-07T07:17:56;23.10;;;12.70;;
10845;SDS011;5476;51.540;7.186;2022-12-07T07:20:23;20.53;;;13.27;;
10845;SDS011;5476;51.540;7.186;2022-12-07T07:22:51;22.43;;;13.77;;
10845;SDS011;5476;51.540;7.186;2022-12-07T07:25:22;24.10;;;17.50;;
10845;SDS011;5476;51.540;7.186;2022-12-07T07:27:49;23.47;;;15.77;;
10845;SDS011;5476;51.540;7.186;2022-12-07T07:30:18;28.67;;;15.80;;
10845;SDS011;5476;51.540;7.186;2022-12-07T07:32:45;32.73;;;18.47;;
10845;SDS011;5476;51.540;7.186;2022-12-07T07:35:13;30.50;;;16.63;;
10845;SDS011;5476;51.540;7.186;2022-12-07T07:37:40;25.17;;;14.67;;
10845;SDS011;5476;51.540;7.186;2022-12-07T07:40:07;28.13;;;16.07;;
10845;SDS011;5476;51.540;7.186;2022-12-07T07:42:36;26.63;;;16.13;;
10845;SDS011;5476;51.540;7.186;2022-12-07T07:45:04;26.00;;;14.07;;
10845;SDS011;5476;51.540;7.186;2022-12-07T07:47:31;26.00;;;15.43;;
10845;SDS011;5476;51.540;7.186;2022-12-07T07:49:58;23.53;;;13.00;;
10845;SDS011;5476;51.540;7.186;2022-12-07T07:52:26;25.43;;;14.47;;
10845;SDS011;5476;51.540;7.186;2022-12-07T07:54:53;25.00;;;13.67;;
10845;SDS011;5476;51.540;7.186;2022-12-07T07:57:20;24.10;;;13.07;;
10845;SDS011;5476;51.540;7.186;2022-12-07T07:59:49;26.87;;;15.20;;
10845;SDS011;5476;51.540;7.186;2022-12-07T08:02:18;29.00;;;16.23;;
10845;SDS011;5476;51.540;7.186;2022-12-07T08:04:46;36.43;;;16.53;;
10845;SDS011;5476;51.540;7.186;2022-12-07T08:07:13;33.37;;;17.07;;
10845;SDS011;5476;51.540;7.186;2022-12-07T08:09:41;34.00;;;16.63;;
10845;SDS011;5476;51.540;7.186;2022-12-07T08:12:08;29.00;;;15.93;;
10845;SDS011;5476;51.540;7.186;2022-12-07T08:14:35;25.23;;;13.73;;
10845;SDS011;5476;51.540;7.186;2022-12-07T08:17:04;25.80;;;13.50;;
10845;SDS011;5476;51.540;7.186;2022-12-07T08:19:31;22.27;;;11.27;;
10845;SDS011;5476;51.540;7.186;2022-12-07T08:21:59;25.07;;;12.93;;
10845;SDS011;5476;51.540;7.186;2022-12-07T08:24:26;20.80;;;11.47;;
10845;SDS011;5476;51.540;7.186;2022-12-07T08:26:53;15.17;;;10.47;;
10845;SDS011;5476;51.540;7.186;2022-12-07T08:29:20;16.40;;;11.07;;
10845;SDS011;5476;51.540;7.186;2022-12-07T08:31:47;16.83;;;10.97;;
10845;SDS011;5476;51.540;7.186;2022-12-07T08:34:16;16.37;;;10.47;;
10845;SDS011;5476;51.540;7.186;2022-12-07T08:36:43;19.03;;;11.30;;
10845;SDS011;5476;51.540;7.186;2022-12-07T08:39:10;19.73;;;10.13;;
10845;SDS011;5476;51.540;7.186;2022-12-07T08:41:38;16.93;;;9.17;;
10845;SDS011;5476;51.540;7.186;2022-12-07T08:44:05;17.67;;;10.37;;
10845;SDS011;5476;51.540;7.186;2022-12-07T08:46:33;14.43;;;8.93;;
10845;SDS011;5476;51.540;7.186;2022-12-07T08:49:03;12.23;;;8.73;;
10845;SDS011;5476;51.540;7.186;2022-12-07T08:51:34;19.17;;;10.23;;
10845;SDS011;5476;51.540;7.186;2022-12-07T08:54:04;22.80;;;9.23;;
10845;SDS011;5476;51.540;7.186;2022-12-07T09:02:24;16.33;;;8.97;;
10845;SDS011;5476;51.540;7.186;2022-12-07T09:04:52;14.40;;;8.40;;
10845;SDS011;5476;51.540;7.186;2022-12-07T09:07:20;13.30;;;8.77;;
10845;SDS011;5476;51.540;7.186;2022-12-07T09:09:48;16.20;;;9.03;;
10845;SDS011;5476;51.540;7.186;2022-12-07T09:12:15;16.90;;;8.80;;
10845;SDS011;5476;51.540;7.186;2022-12-07T09:14:42;17.60;;;8.73;;
10845;SDS011;5476;51.540;7.186;2022-12-07T09:17:10;12.30;;;7.47;;
10845;SDS011;5476;51.540;7.186;2022-12-07T09:19:39;14.07;;;7.30;;
10845;SDS011;5476;51.540;7.186;2022-12-07T09:22:07;15.67;;;7.60;;
10845;SDS011;5476;51.540;7.186;2022-12-07T09:24:40;17.73;;;8.00;;
10845;SDS011;5476;51.540;7.186;2022-12-07T09:27:08;13.00;;;7.40;;
10845;SDS011;5476;51.540;7.186;2022-12-07T09:29:35;12.50;;;7.50;;
10845;SDS011;5476;51.540;7.186;2022-12-07T09:32:04;12.87;;;7.50;;
10845;SDS011;5476;51.540;7.186;2022-12-07T09:34:31;14.70;;;7.03;;
10845;SDS011;5476;51.540;7.186;2022-12-07T09:37:00;10.97;;;7.27;;
10845;SDS011;5476;51.540;7.186;2022-12-07T09:39:28;15.83;;;7.67;;
10845;SDS011;5476;51.540;7.186;2022-12-07T09:41:56;9.60;;;6.80;;
10845;SDS011;5476;51.540;7.186;2022-12-07T09:44:24;11.97;;;6.80;;
10845;SDS011;5476;51.540;7.186;2022-12-07T09:46:53;10.53;;;7.13;;
10845;SDS011;5476;51.540;7.186;2022-12-07T09:49:22;10.97;;;6.80;;
10845;SDS011;5476;51.540;7.186;2022-12-07T09:51:59;11.47;;;7.30;;
10845;SDS011;5476;51.540;7.186;2022-12-07T09:54:27;11.70;;;6.40;;
10845;SDS011;5476;51.540;7.186;2022-12-07T09:56:57;12.70;;;6.27;;
10845;SDS011;5476;51.540;7.186;2022-12-07T09:59:25;10.33;;;6.50;;
10845;SDS011;5476;51.540;7.186;2022-12-07T10:01:53;12.33;;;6.43;;
10845;SDS011;5476;51.540;7.186;2022-12-07T10:04:21;11.83;;;6.30;;
10845;SDS011;5476;51.540;7.186;2022-12-07T10:06:49;13.23;;;6.73;;
10845;SDS011;5476;51.540;7.186;2022-12-07T10:09:19;10.30;;;6.50;;
10845;SDS011;5476;51.540;7.186;2022-12-07T10:12:02;10.60;;;5.47;;
10845;SDS011;5476;51.540;7.186;2022-12-07T10:14:30;10.77;;;5.90;;
10845;SDS011;5476;51.540;7.186;2022-12-07T10:16:58;12.50;;;6.20;;
10845;SDS011;5476;51.540;7.186;2022-12-07T10:19:26;10.03;;;5.77;;
10845;SDS011;5476;51.540;7.186;2022-12-07T10:22:04;10.90;;;6.13;;
10845;SDS011;5476;51.540;7.186;2022-12-07T10:24:32;11.17;;;5.80;;
10845;SDS011;5476;51.540;7.186;2022-12-07T10:26:59;12.77;;;6.17;;
10845;SDS011;5476;51.540;7.186;2022-12-07T10:29:29;9.63;;;6.23;;
10845;SDS011;5476;51.540;7.186;2022-12-07T10:31:58;12.43;;;6.80;;
10845;SDS011;5476;51.540;7.186;2022-12-07T10:34:27;12.07;;;6.70;;
10845;SDS011;5476;51.540;7.186;2022-12-07T10:37:07;11.70;;;6.80;;
10845;SDS011;5476;51.540;7.186;2022-12-07T10:39:41;9.50;;;6.10;;
10845;SDS011;5476;51.540;7.186;2022-12-07T10:42:17;11.33;;;6.63;;
10845;SDS011;5476;51.540;7.186;2022-12-07T10:44:45;11.07;;;6.83;;
10845;SDS011;5476;51.540;7.186;2022-12-07T10:47:25;11.93;;;6.10;;
10845;SDS011;5476;51.540;7.186;2022-12-07T10:52:45;13.97;;;6.67;;
10845;SDS011;5476;51.540;7.186;2022-12-07T10:55:17;12.63;;;7.53;;
10845;SDS011;5476;51.540;7.186;2022-12-07T10:57:50;12.47;;;6.97;;
10845;SDS011;5476;51.540;7.186;2022-12-07T11:00:21;10.77;;;7.10;;
10845;SDS011;5476;51.540;7.186;2022-12-07T11:02:52;16.30;;;6.90;;
10845;SDS011;5476;51.540;7.186;2022-12-07T11:05:27;11.97;;;6.87;;
10845;SDS011;5476;51.540;7.186;2022-12-07T11:08:02;14.23;;;7.23;;
10845;SDS011;5476;51.540;7.186;2022-12-07T11:10:38;13.27;;;7.10;;
10845;SDS011;5476;51.540;7.186;2022-12-07T11:13:18;9.80;;;6.00;;
10845;SDS011;5476;51.540;7.186;2022-12-07T11:16:00;14.20;;;5.50;;
10845;SDS011;5476;51.540;7.186;2022-12-07T11:18:37;10.67;;;5.40;;
10845;SDS011;5476;51.540;7.186;2022-12-07T11:21:07;9.23;;;5.27;;
10845;SDS011;5476;51.540;7.186;2022-12-07T11:23:44;10.40;;;4.90;;
10845;SDS011;5476;51.540;7.186;2022-12-07T11:26:22;12.67;;;5.17;;
10845;SDS011;5476;51.540;7.186;2022-12-07T11:29:06;14.77;;;5.13;;
10845;SDS011;5476;51.540;7.186;2022-12-07T11:31:48;5.83;;;4.10;;
10845;SDS011;5476;51.540;7.186;2022-12-07T11:34:24;7.87;;;4.43;;
10845;SDS011;5476;51.540;7.186;2022-12-07T11:37:01;9.50;;;4.27;;
10845;SDS011;5476;51.540;7.186;2022-12-07T11:39:31;9.83;;;4.53;;
10845;SDS011;5476;51.540;7.186;2022-12-07T11:42:04;8.03;;;3.93;;
10845;SDS011;5476;51.540;7.186;2022-12-07T11:44:36;7.73;;;4.10;;
10845;SDS011;5476;51.540;7.186;2022-12-07T11:47:12;6.83;;;4.07;;
10845;SDS011;5476;51.540;7.186;2022-12-07T11:49:44;9.33;;;4.40;;
10845;SDS011;5476;51.540;7.186;2022-12-07T11:52:19;12.20;;;4.90;;
10845;SDS011;5476;51.540;7.186;2022-12-07T11:54:52;11.77;;;4.50;;
10845;SDS011;5476;51.540;7.186;2022-12-07T11:57:22;5.53;;;3.20;;
10845;SDS011;5476;51.540;7.186;2022-12-07T11:59:56;10.10;;;3.73;;
10845;SDS011;5476;51.540;7.186;2022-12-07T12:02:28;10.27;;;3.23;;
10845;SDS011;5476;51.540;7.186;2022-12-07T12:05:02;7.03;;;3.57;;
10845;SDS011;5476;51.540;7.186;2022-12-07T12:07:33;8.50;;;3.70;;
10845;SDS011;5476;51.540;7.186;2022-12-07T12:10:04;9.33;;;3.03;;
10845;SDS011;5476;51.540;7.186;2022-12-07T12:12:40;8.27;;;3.00;;
10845;SDS011;5476;51.540;7.186;2022-12-07T12:15:18;6.93;;;2.80;;
10845;SDS011;5476;51.540;7.186;2022-12-07T12:17:54;9.33;;;3.07;;
10845;SDS011;5476;51.540;7.186;2022-12-07T12:20:25;7.63;;;3.07;;
10845;SDS011;5476;51.540;7.186;2022-12-07T12:22:55;5.33;;;2.70;;
10845;SDS011;5476;51.540;7.186;2022-12-07T12:25:28;6.20;;;2.70;;
10845;SDS011;5476;51.540;7.186;2022-12-07T12:28:00;3.33;;;2.60;;
10845;SDS011;5476;51.540;7.186;2022-12-07T12:30:33;6.93;;;2.67;;
10845;SDS011;5476;51.540;7.186;2022-12-07T12:33:02;6.93;;;2.47;;
10845;SDS011;5476;51.540;7.186;2022-12-07T12:35:33;5.40;;;2.40;;
10845;SDS011;5476;51.540;7.186;2022-12-07T12:40:48;7.10;;;2.60;;
10845;SDS011;5476;51.540;7.186;2022-12-07T12:49:35;4.33;;;1.83;;
10845;SDS011;5476;51.540;7.186;2022-12-07T12:55:16;7.00;;;2.43;;
10845;SDS011;5476;51.540;7.186;2022-12-07T13:10:20;5.67;;;2.37;;
10845;SDS011;5476;51.540;7.186;2022-12-07T13:12:57;6.10;;;2.40;;
10845;SDS011;5476;51.540;7.186;2022-12-07T13:15:31;9.37;;;2.60;;
10845;SDS011;5476;51.540;7.186;2022-12-07T13:18:00;9.87;;;3.47;;
10845;SDS011;5476;51.540;7.186;2022-12-07T13:23:25;6.83;;;3.10;;
10845;SDS011;5476;51.540;7.186;2022-12-07T13:25:56;7.13;;;3.23;;
10845;SDS011;5476;51.540;7.186;2022-12-07T13:28:36;8.07;;;3.17;;
10845;SDS011;5476;51.540;7.186;2022-12-07T13:31:13;6.97;;;2.67;;
10845;SDS011;5476;51.540;7.186;2022-12-07T13:33:56;5.23;;;2.83;;
10845;SDS011;5476;51.540;7.186;2022-12-07T13:36:26;10.23;;;3.20;;
10845;SDS011;5476;51.540;7.186;2022-12-07T13:38:55;9.07;;;2.97;;
10845;SDS011;5476;51.540;7.186;2022-12-07T13:41:23;6.10;;;2.80;;
10845;SDS011;5476;51.540;7.186;2022-12-07T13:43:53;7.77;;;3.03;;
10845;SDS011;5476;51.540;7.186;2022-12-07T13:46:24;11.33;;;3.13;;
10845;SDS011;5476;51.540;7.186;2022-12-07T13:48:52;8.07;;;3.30;;
10845;SDS011;5476;51.540;7.186;2022-12-07T13:51:21;11.87;;;3.83;;
10845;SDS011;5476;51.540;7.186;2022-12-07T13:53:51;5.17;;;3.03;;
10845;SDS011;5476;51.540;7.186;2022-12-07T13:56:20;3.63;;;2.43;;
10845;SDS011;5476;51.540;7.186;2022-12-07T13:58:47;6.83;;;1.73;;
10845;SDS011;5476;51.540;7.186;2022-12-07T14:01:15;6.33;;;1.80;;
10845;SDS011;5476;51.540;7.186;2022-12-07T14:03:43;4.03;;;2.10;;
10845;SDS011;5476;51.540;7.186;2022-12-07T14:06:15;4.40;;;2.10;;
10845;SDS011;5476;51.540;7.186;2022-12-07T14:08:42;3.67;;;2.50;;
10845;SDS011;5476;51.540;7.186;2022-12-07T14:11:12;3.87;;;2.50;;
10845;SDS011;5476;51.540;7.186;2022-12-07T14:13:44;4.80;;;2.60;;
10845;SDS011;5476;51.540;7.186;2022-12-07T14:16:18;3.83;;;2.17;;
10845;SDS011;5476;51.540;7.186;2022-12-07T14:18:47;5.03;;;2.30;;
10845;SDS011;5476;51.540;7.186;2022-12-07T14:21:14;4.50;;;1.97;;
10845;SDS011;5476;51.540;7.186;2022-12-07T14:23:43;6.30;;;2.40;;
10845;SDS011;5476;51.540;7.186;2022-12-07T14:26:12;4.57;;;2.20;;
10845;SDS011;5476;51.540;7.186;2022-12-07T14:28:42;2.83;;;2.20;;
10845;SDS011;5476;51.540;7.186;2022-12-07T14:31:10;4.60;;;2.70;;
10845;SDS011;5476;51.540;7.186;2022-12-07T14:33:38;6.13;;;2.70;;
10845;SDS011;5476;51.540;7.186;2022-12-07T14:36:07;9.63;;;3.40;;
10845;SDS011;5476;51.540;7.186;2022-12-07T14:38:35;8.07;;;2.90;;
10845;SDS011;5476;51.540;7.186;2022-12-07T14:41:02;9.27;;;3.50;;
10845;SDS011;5476;51.540;7.186;2022-12-07T14:43:49;7.37;;;4.30;;
10845;SDS011;5476;51.540;7.186;2022-12-07T14:46:16;6.90;;;3.80;;
10845;SDS011;5476;51.540;7.186;2022-12-07T14:48:43;6.87;;;3.60;;
10845;SDS011;5476;51.540;7.186;2022-12-07T14:51:10;10.33;;;3.80;;
10845;SDS011;5476;51.540;7.186;2022-12-07T14:53:39;10.40;;;4.00;;
10845;SDS011;5476;51.540;7.186;2022-12-07T14:56:06;7.10;;;4.50;;
10845;SDS011;5476;51.540;7.186;2022-12-07T14:58:34;6.70;;;3.90;;
10845;SDS011;5476;51.540;7.186;2022-12-07T15:01:02;7.80;;;4.17;;
10845;SDS011;5476;51.540;7.186;2022-12-07T15:03:30;8.97;;;4.10;;
10845;SDS011;5476;51.540;7.186;2022-12-07T15:05:59;8.83;;;4.50;;
10845;SDS011;5476;51.540;7.186;2022-12-07T15:08:26;9.37;;;4.20;;
10845;SDS011;5476;51.540;7.186;2022-12-07T15:10:54;6.37;;;4.07;;
10845;SDS011;5476;51.540;7.186;2022-12-07T15:13:21;7.67;;;3.97;;
10845;SDS011;5476;51.540;7.186;2022-12-07T15:16:09;6.43;;;3.70;;
10845;SDS011;5476;51.540;7.186;2022-12-07T15:18:37;8.30;;;4.57;;
10845;SDS011;5476;51.540;7.186;2022-12-07T15:21:04;12.30;;;4.97;;
10845;SDS011;5476;51.540;7.186;2022-12-07T15:23:31;8.83;;;4.37;;
10845;SDS011;5476;51.540;7.186;2022-12-07T15:25:58;15.27;;;5.40;;
10845;SDS011;5476;51.540;7.186;2022-12-07T15:28:27;9.23;;;5.40;;
10845;SDS011;5476;51.540;7.186;2022-12-07T15:30:54;8.10;;;5.03;;
10845;SDS011;5476;51.540;7.186;2022-12-07T15:33:23;7.77;;;4.83;;
10845;SDS011;5476;51.540;7.186;2022-12-07T15:35:50;10.17;;;4.90;;
10845;SDS011;5476;51.540;7.186;2022-12-07T15:38:17;11.70;;;4.83;;
10845;SDS011;5476;51.540;7.186;2022-12-07T15:40:46;7.67;;;4.83;;
10845;SDS011;5476;51.540;7.186;2022-12-07T15:43:14;8.57;;;4.63;;
10845;SDS011;5476;51.540;7.186;2022-12-07T15:45:55;7.40;;;4.50;;
10845;SDS011;5476;51.540;7.186;2022-12-07T15:48:23;8.80;;;5.00;;
10845;SDS011;5476;51.540;7.186;2022-12-07T15:50:51;8.97;;;4.80;;
10845;SDS011;5476;51.540;7.186;2022-12-07T15:53:18;9.93;;;4.93;;
10845;SDS011;5476;51.540;7.186;2022-12-07T15:55:45;10.33;;;4.67;;